createdAt,value
2018-06-14T00:00:39.063Z,70.58
2018-06-14T00:01:39.049Z,70.34
2018-06-14T00:02:39.062Z,70.6
2018-06-14T00:03:39.076Z,70.72
2018-06-14T00:04:39.104Z,71.23
2018-06-14T00:05:39.076Z,71.53
2018-06-14T00:06:39.059Z,71.94
2018-06-14T00:07:39.073Z,72.01
2018-06-14T00:08:39.072Z,72.31
2018-06-14T00:09:39.076Z,72.57
2018-06-14T00:10:39.055Z,72.57
2018-06-14T00:11:39.051Z,72.22
2018-06-14T00:12:39.109Z,72.28
2018-06-14T00:13:39.061Z,72.32
2018-06-14T00:14:39.095Z,72.24
2018-06-14T00:15:39.077Z,72.18
2018-06-14T00:16:39.101Z,72.2
2018-06-14T00:17:39.207Z,72.57
2018-06-14T00:18:39.082Z,72.58
2018-06-14T00:19:39.069Z,72.22
2018-06-14T00:20:39.070Z,72.1
2018-06-14T00:21:39.097Z,72.47
2018-06-14T00:22:39.291Z,72.44
2018-06-14T00:23:39.229Z,72.81
2018-06-14T00:24:39.070Z,72.73
2018-06-14T00:25:39.062Z,72.66
2018-06-14T00:26:39.087Z,72.67
2018-06-14T00:27:39.084Z,72.33
2018-06-14T00:28:39.089Z,72.42
2018-06-14T00:29:39.096Z,72.35
2018-06-14T00:30:39.140Z,72.05
2018-06-14T00:31:39.150Z,72.09
2018-06-14T00:32:39.081Z,72.05
2018-06-14T00:33:39.165Z,72.24
2018-06-14T00:34:39.087Z,71.95
2018-06-14T00:35:39.081Z,71.79
2018-06-14T00:36:39.181Z,72.14
2018-06-14T00:37:39.099Z,72.28
2018-06-14T00:38:39.096Z,72.07
2018-06-14T00:39:39.298Z,72.22
2018-06-14T00:40:39.090Z,72
2018-06-14T00:41:39.063Z,71.71
2018-06-14T00:42:39.064Z,71.78
2018-06-14T00:43:39.070Z,71.84
2018-06-14T00:44:39.289Z,72.06
2018-06-14T00:45:39.086Z,72.14
2018-06-14T00:46:39.063Z,72.37
2018-06-14T00:47:39.079Z,72.39
2018-06-14T00:48:39.075Z,72.44
2018-06-14T00:49:39.381Z,72.55
2018-06-14T00:50:39.082Z,72.81
2018-06-14T00:51:39.089Z,72.51
2018-06-14T00:52:39.105Z,72.4
2018-06-14T00:53:39.133Z,72.36
2018-06-14T00:54:39.101Z,72.16
2018-06-14T00:55:39.091Z,72.3
2018-06-14T00:56:39.081Z,73.15
2018-06-14T00:57:39.137Z,72.95
2018-06-14T00:58:39.064Z,72.84
2018-06-14T00:59:39.075Z,72.77
2018-06-14T01:00:39.092Z,72.87
2018-06-14T01:01:39.082Z,72.91
2018-06-14T01:02:39.101Z,72.95
2018-06-14T01:03:39.080Z,73.08
2018-06-14T01:04:39.099Z,73.15
2018-06-14T01:05:39.093Z,73
2018-06-14T01:06:39.097Z,73.15
2018-06-14T01:07:39.112Z,73.06
2018-06-14T01:08:39.095Z,73.06
2018-06-14T01:09:39.116Z,73.26
2018-06-14T01:10:39.307Z,73.16
2018-06-14T01:11:39.115Z,73.46
2018-06-14T01:12:39.107Z,73.58
2018-06-14T01:13:39.081Z,73.52
2018-06-14T01:14:39.122Z,73.32
2018-06-14T01:15:39.128Z,73.53
2018-06-14T01:16:39.084Z,74.52
2018-06-14T01:17:39.085Z,74.76
2018-06-14T01:18:39.094Z,75.07
2018-06-14T01:19:39.105Z,75.54
2018-06-14T01:20:39.100Z,75.46
2018-06-14T01:21:39.101Z,75.11
2018-06-14T01:22:39.101Z,75.07
2018-06-14T01:23:39.089Z,74.69
2018-06-14T01:24:39.214Z,75.36
2018-06-14T01:25:39.359Z,75.32
2018-06-14T01:26:39.105Z,75.26
2018-06-14T01:27:39.129Z,75.94
2018-06-14T01:28:39.084Z,75.77
2018-06-14T01:29:39.094Z,75.84
2018-06-14T01:30:39.109Z,75.94
2018-06-14T01:31:39.140Z,77.07
2018-06-14T01:32:39.105Z,77.16
2018-06-14T01:33:39.113Z,77.09
2018-06-14T01:34:39.155Z,76.97
2018-06-14T01:35:39.124Z,76.77
2018-06-14T01:36:39.157Z,76.47
2018-06-14T01:37:39.134Z,76.37
2018-06-14T01:38:39.110Z,76.07
2018-06-14T01:39:39.112Z,75.92
2018-06-14T01:40:39.311Z,75.58
2018-06-14T01:41:39.258Z,75.5
2018-06-14T01:42:39.127Z,75.55
2018-06-14T01:43:39.136Z,75.74
2018-06-14T01:44:39.101Z,76.05
2018-06-14T01:45:39.121Z,75.6
2018-06-14T01:46:39.095Z,74.81
2018-06-14T01:47:39.105Z,75.02
2018-06-14T01:48:39.177Z,75.17
2018-06-14T01:49:39.166Z,74.92
2018-06-14T01:50:39.127Z,74.83
2018-06-14T01:51:39.139Z,74.7
2018-06-14T01:52:39.111Z,75.35
2018-06-14T01:53:39.127Z,75.43
2018-06-14T01:54:39.140Z,75.29
2018-06-14T01:55:39.143Z,74.96
2018-06-14T01:56:39.128Z,74.76
2018-06-14T01:57:39.127Z,75.17
2018-06-14T01:58:39.141Z,75.6
2018-06-14T01:59:39.133Z,75.57
2018-06-14T02:00:39.122Z,75.27
2018-06-14T02:01:39.109Z,75.29
2018-06-14T02:02:39.173Z,75.05
2018-06-14T02:03:39.159Z,74.9
2018-06-14T02:04:39.240Z,74.85
2018-06-14T02:05:39.275Z,75.18
2018-06-14T02:06:39.120Z,75.16
2018-06-14T02:07:39.189Z,75.54
2018-06-14T02:08:39.124Z,75.01
2018-06-14T02:09:39.163Z,75.09
2018-06-14T02:10:39.140Z,75.23
2018-06-14T02:11:39.181Z,75.27
2018-06-14T02:12:39.155Z,75.29
2018-06-14T02:13:39.156Z,75.16
2018-06-14T02:14:39.141Z,74.95
2018-06-14T02:15:39.203Z,75.1
2018-06-14T02:16:39.199Z,75.07
2018-06-14T02:17:39.176Z,74.61
2018-06-14T02:18:39.116Z,74.75
2018-06-14T02:19:39.134Z,74.81
2018-06-14T02:20:39.128Z,75.37
2018-06-14T02:21:39.131Z,74.8
2018-06-14T02:22:39.139Z,75.3
2018-06-14T02:23:39.129Z,75.42
2018-06-14T02:24:39.130Z,74.79
2018-06-14T02:25:39.151Z,74.83
2018-06-14T02:26:39.129Z,75.49
2018-06-14T02:27:39.147Z,74.89
2018-06-14T02:28:39.154Z,75.26
2018-06-14T02:29:39.147Z,74.69
2018-06-14T02:30:39.145Z,75.17
2018-06-14T02:31:39.143Z,74.75
2018-06-14T02:32:39.166Z,74.53
2018-06-14T02:33:39.127Z,74.59
2018-06-14T02:34:39.132Z,75.3
2018-06-14T02:35:39.133Z,74.92
2018-06-14T02:36:39.134Z,75.38
2018-06-14T02:37:39.195Z,75.69
2018-06-14T02:38:39.187Z,75.5
2018-06-14T02:39:39.152Z,76.03
2018-06-14T02:40:39.147Z,75.54
2018-06-14T02:41:39.163Z,75.7
2018-06-14T02:42:39.147Z,75.79
2018-06-14T02:43:39.141Z,75.25
2018-06-14T02:44:39.149Z,75.44
2018-06-14T02:45:39.292Z,75.54
2018-06-14T02:46:39.173Z,75.85
2018-06-14T02:47:39.154Z,75.12
2018-06-14T02:48:39.151Z,75.55
2018-06-14T02:49:39.138Z,75.74
2018-06-14T02:50:39.131Z,76.02
2018-06-14T02:51:39.179Z,75.9
2018-06-14T02:52:39.253Z,75.85
2018-06-14T02:53:39.177Z,75.83
2018-06-14T02:54:39.308Z,75.34
2018-06-14T02:55:39.153Z,75.08
2018-06-14T02:56:39.185Z,75.27
2018-06-14T02:57:39.174Z,75.25
2018-06-14T02:58:39.186Z,75.16
2018-06-14T02:59:39.302Z,75.83
2018-06-14T03:00:39.224Z,75.27
2018-06-14T03:01:39.163Z,75.53
2018-06-14T03:02:39.162Z,75.52
2018-06-14T03:03:39.179Z,75.66
2018-06-14T03:04:39.187Z,76.03
2018-06-14T03:05:39.217Z,76
2018-06-14T03:06:39.150Z,75.75
2018-06-14T03:07:39.205Z,75.52
2018-06-14T03:08:39.262Z,75.93
2018-06-14T03:09:39.156Z,75.68
2018-06-14T03:10:39.203Z,75.79
2018-06-14T03:11:39.159Z,76.16
2018-06-14T03:12:39.177Z,75.8
2018-06-14T03:13:39.206Z,76.15
2018-06-14T03:14:39.152Z,76.06
2018-06-14T03:15:39.247Z,75.66
2018-06-14T03:16:39.350Z,75.91
2018-06-14T03:17:39.219Z,75.64
2018-06-14T03:18:39.181Z,75.42
2018-06-14T03:19:39.392Z,75.34
2018-06-14T03:20:39.160Z,75.58
2018-06-14T03:21:39.332Z,75.49
2018-06-14T03:22:39.271Z,75.5
2018-06-14T03:23:39.157Z,75.58
2018-06-14T03:24:39.271Z,75.42
2018-06-14T03:25:39.187Z,75.49
2018-06-14T03:26:39.154Z,75.33
2018-06-14T03:27:39.171Z,75.26
2018-06-14T03:28:39.164Z,75.09
2018-06-14T03:29:39.184Z,75.93
2018-06-14T03:30:39.161Z,75.6
2018-06-14T03:31:39.162Z,75.33
2018-06-14T03:32:39.176Z,75.23
2018-06-14T03:33:39.170Z,75.74
2018-06-14T03:34:39.191Z,75.7
2018-06-14T03:35:39.184Z,76.29
2018-06-14T03:36:39.214Z,76.2
2018-06-14T03:37:39.199Z,76.55
2018-06-14T03:38:39.174Z,75.96
2018-06-14T03:39:39.192Z,75.66
2018-06-14T03:40:39.170Z,76.35
2018-06-14T03:41:39.175Z,76.01
2018-06-14T03:42:39.172Z,75.7
2018-06-14T03:43:39.194Z,75.79
2018-06-14T03:44:39.168Z,76.14
2018-06-14T03:45:39.196Z,75.65
2018-06-14T03:46:39.171Z,75.58
2018-06-14T03:47:39.203Z,76.72
2018-06-14T03:48:39.233Z,76.76
2018-06-14T03:49:39.190Z,76.61
2018-06-14T03:50:39.204Z,76.21
2018-06-14T03:51:39.330Z,76.49
2018-06-14T03:52:39.229Z,76.74
2018-06-14T03:53:39.155Z,76.33
2018-06-14T03:54:39.269Z,76.03
2018-06-14T03:55:39.203Z,76.5
2018-06-14T03:56:39.225Z,76.16
2018-06-14T03:57:39.217Z,76.16
2018-06-14T03:58:39.177Z,76.02
2018-06-14T03:59:39.239Z,76.73
2018-06-14T04:00:39.344Z,76.8
2018-06-14T04:01:39.492Z,76.64
2018-06-14T04:02:39.249Z,77.03
2018-06-14T04:03:39.288Z,76.74
2018-06-14T04:04:39.189Z,76.65
2018-06-14T04:05:39.246Z,76.87
2018-06-14T04:06:39.233Z,76.79
2018-06-14T04:07:39.196Z,76.55
2018-06-14T04:08:39.269Z,76.43
2018-06-14T04:09:39.458Z,76.74
2018-06-14T04:10:39.170Z,76.83
2018-06-14T04:11:39.238Z,76.56
2018-06-14T04:12:39.175Z,76.23
2018-06-14T04:13:39.210Z,76.56
2018-06-14T04:14:39.339Z,76.36
2018-06-14T04:15:39.194Z,76.6
2018-06-14T04:16:39.203Z,76.65
2018-06-14T04:17:39.219Z,77.24
2018-06-14T04:18:39.296Z,77.17
2018-06-14T04:19:39.223Z,76.46
2018-06-14T04:20:39.197Z,76.39
2018-06-14T04:21:39.205Z,76.23
2018-06-14T04:22:39.196Z,76.6
2018-06-14T04:23:39.190Z,76.8
2018-06-14T04:24:39.215Z,76.83
2018-06-14T04:25:39.235Z,76.36
2018-06-14T04:26:39.248Z,76.27
2018-06-14T04:27:39.248Z,76.87
2018-06-14T04:28:39.198Z,76.72
2018-06-14T04:29:39.197Z,76.97
2018-06-14T04:30:39.226Z,76.06
2018-06-14T04:31:39.193Z,76.1
2018-06-14T04:32:39.195Z,77.1
2018-06-14T04:33:39.208Z,76.19
2018-06-14T04:34:39.216Z,76.55
2018-06-14T04:35:39.225Z,76.57
2018-06-14T04:36:39.503Z,76.08
2018-06-14T04:37:39.238Z,76.33
2018-06-14T04:38:39.201Z,76.11
2018-06-14T04:39:39.221Z,75.98
2018-06-14T04:40:39.205Z,76.07
2018-06-14T04:41:39.223Z,75.96
2018-06-14T04:42:39.219Z,75.74
2018-06-14T04:43:39.215Z,75.52
2018-06-14T04:44:39.284Z,75.88
2018-06-14T04:45:39.200Z,76.5
2018-06-14T04:46:39.199Z,76.54
2018-06-14T04:47:39.211Z,76.22
2018-06-14T04:48:39.214Z,76
2018-06-14T04:49:39.221Z,76.08
2018-06-14T04:50:39.203Z,76.79
2018-06-14T04:51:39.229Z,76.77
2018-06-14T04:52:39.205Z,76.19
2018-06-14T04:53:39.228Z,76.26
2018-06-14T04:54:39.411Z,75.99
2018-06-14T04:55:39.260Z,76.38
2018-06-14T04:56:39.231Z,76.36
2018-06-14T04:57:39.227Z,76.25
2018-06-14T04:58:39.226Z,76.04
2018-06-14T04:59:39.246Z,76.29
2018-06-14T05:00:39.249Z,76.18
2018-06-14T05:01:39.205Z,75.88
2018-06-14T05:02:39.263Z,75.9
2018-06-14T05:03:39.230Z,75.79
2018-06-14T05:04:39.271Z,75.89
2018-06-14T05:05:39.218Z,75.7
2018-06-14T05:06:39.208Z,75.65
2018-06-14T05:07:39.220Z,76.13
2018-06-14T05:08:39.243Z,75.74
2018-06-14T05:09:39.225Z,75.77
2018-06-14T05:10:39.295Z,75.46
2018-06-14T05:11:39.264Z,75.56
2018-06-14T05:12:39.234Z,75.51
2018-06-14T05:13:39.262Z,75.31
2018-06-14T05:14:39.235Z,75.28
2018-06-14T05:15:39.242Z,75.14
2018-06-14T05:16:39.279Z,75.13
2018-06-14T05:17:39.228Z,75
2018-06-14T05:18:39.226Z,75.04
2018-06-14T05:19:39.369Z,74.93
2018-06-14T05:20:39.228Z,74.99
2018-06-14T05:21:39.349Z,75.04
2018-06-14T05:22:39.251Z,75.18
2018-06-14T05:23:39.287Z,75.13
2018-06-14T05:24:39.410Z,75.4
2018-06-14T05:25:39.217Z,75.17
2018-06-14T05:26:39.245Z,75.13
2018-06-14T05:27:39.372Z,75.56
2018-06-14T05:28:39.281Z,75.44
2018-06-14T05:29:39.275Z,75.11
2018-06-14T05:30:39.270Z,75.16
2018-06-14T05:31:39.239Z,75.28
2018-06-14T05:32:39.332Z,75.48
2018-06-14T05:33:39.239Z,75.4
2018-06-14T05:34:39.271Z,75.12
2018-06-14T05:35:39.273Z,75.25
2018-06-14T05:36:39.248Z,75.04
2018-06-14T05:37:39.294Z,75.25
2018-06-14T05:38:39.261Z,75.03
2018-06-14T05:39:39.355Z,75.04
2018-06-14T05:40:39.328Z,75.16
2018-06-14T05:41:39.259Z,75.35
2018-06-14T05:42:39.233Z,75.39
2018-06-14T05:43:39.257Z,75.68
2018-06-14T05:44:39.359Z,75.74
2018-06-14T05:45:39.256Z,75.4
2018-06-14T05:46:39.511Z,75.28
2018-06-14T05:47:39.384Z,75.33
2018-06-14T05:48:39.232Z,75.38
2018-06-14T05:49:39.224Z,75.19
2018-06-14T05:50:39.264Z,75.54
2018-06-14T05:51:39.236Z,75.11
2018-06-14T05:52:39.221Z,75.21
2018-06-14T05:53:39.250Z,75.23
2018-06-14T05:54:39.243Z,75.08
2018-06-14T05:55:39.245Z,74.92
2018-06-14T05:56:39.243Z,74.64
2018-06-14T05:57:39.293Z,74.64
2018-06-14T05:58:39.230Z,74.71
2018-06-14T05:59:39.245Z,74.53
2018-06-14T06:00:39.242Z,74.57
2018-06-14T06:01:39.254Z,74.65
2018-06-14T06:02:39.244Z,74.79
2018-06-14T06:03:39.225Z,74.67
2018-06-14T06:04:39.231Z,74.54
2018-06-14T06:05:39.242Z,74.41
2018-06-14T06:06:39.257Z,74.41
2018-06-14T06:07:39.247Z,74.4
2018-06-14T06:08:39.263Z,74.07
2018-06-14T06:09:39.251Z,74.32
2018-06-14T06:10:39.270Z,74.27
2018-06-14T06:11:39.305Z,73.63
2018-06-14T06:12:39.314Z,73.36
2018-06-14T06:13:39.406Z,73.7
2018-06-14T06:14:39.408Z,73.76
2018-06-14T06:15:39.268Z,73.77
2018-06-14T06:16:39.351Z,73.41
2018-06-14T06:17:39.461Z,73.54
2018-06-14T06:18:39.264Z,73.32
2018-06-14T06:19:39.357Z,73.27
2018-06-14T06:20:39.279Z,72.17
2018-06-14T06:21:39.399Z,72.67
2018-06-14T06:22:39.256Z,72.75
2018-06-14T06:23:39.268Z,72.84
2018-06-14T06:24:39.265Z,73.13
2018-06-14T06:25:39.289Z,72.83
2018-06-14T06:26:39.475Z,72.79
2018-06-14T06:27:39.390Z,72.93
2018-06-14T06:28:39.295Z,72.51
2018-06-14T06:29:39.354Z,72.81
2018-06-14T06:30:39.278Z,72.8
2018-06-14T06:31:39.274Z,72.84
2018-06-14T06:32:39.270Z,72.49
2018-06-14T06:33:39.425Z,71.73
2018-06-14T06:34:39.493Z,71.51
2018-06-14T06:35:39.306Z,72.22
2018-06-14T06:36:39.283Z,72.25
2018-06-14T06:37:39.259Z,71.33
2018-06-14T06:38:39.312Z,70.2
2018-06-14T06:39:39.333Z,71.07
2018-06-14T06:40:39.364Z,70.95
2018-06-14T06:41:39.266Z,70.65
2018-06-14T06:42:39.313Z,71.17
2018-06-14T06:43:40.279Z,71.38
2018-06-14T06:44:39.443Z,71.3
2018-06-14T06:45:39.492Z,71.5
2018-06-14T06:46:39.310Z,70.87
2018-06-14T06:47:39.431Z,70.27
2018-06-14T06:48:39.283Z,70.66
2018-06-14T06:49:39.271Z,70.97
2018-06-14T06:50:39.348Z,71.1
2018-06-14T06:51:39.339Z,70.12
2018-06-14T06:52:39.306Z,70.38
2018-06-14T06:53:39.270Z,70.15
2018-06-14T06:54:39.275Z,69.22
2018-06-14T06:55:39.284Z,69.88
2018-06-14T06:56:39.282Z,70.07
2018-06-14T06:57:39.284Z,69.76
2018-06-14T06:58:39.282Z,70
2018-06-14T06:59:39.284Z,68.88
2018-06-14T07:00:39.299Z,68.93
2018-06-14T07:01:39.285Z,68.93
2018-06-14T07:02:39.286Z,69.65
2018-06-14T07:03:39.298Z,68.98
2018-06-14T07:04:39.276Z,68.99
2018-06-14T07:05:39.282Z,69.13
2018-06-14T07:06:39.292Z,69.2
2018-06-14T07:07:39.278Z,69.02
2018-06-14T07:08:39.283Z,69.22
2018-06-14T07:09:39.274Z,68.37
2018-06-14T07:10:39.282Z,66.93
2018-06-14T07:11:39.280Z,67.05
2018-06-14T07:12:39.486Z,66.78
2018-06-14T07:13:39.323Z,66.53
2018-06-14T07:14:39.288Z,67.31
2018-06-14T07:15:39.306Z,66.92
2018-06-14T07:16:39.383Z,67.42
2018-06-14T07:17:39.321Z,66.88
2018-06-14T07:18:39.293Z,66.82
2018-06-14T07:19:39.449Z,66.83
2018-06-14T07:20:39.309Z,65.59
2018-06-14T07:21:39.372Z,65.7
2018-06-14T07:22:39.311Z,64.1
2018-06-14T07:23:39.325Z,64.95
2018-06-14T07:24:39.435Z,66.33
2018-06-14T07:25:39.300Z,67.19
2018-06-14T07:26:39.290Z,67.62
2018-06-14T07:27:39.293Z,67.13
2018-06-14T07:28:39.287Z,67.19
2018-06-14T07:29:39.266Z,67.74
2018-06-14T07:30:39.285Z,67.16
2018-06-14T07:31:39.313Z,67.15
2018-06-14T07:32:39.300Z,66.82
2018-06-14T07:33:39.382Z,66.65
2018-06-14T07:34:39.300Z,67.15
2018-06-14T07:35:39.298Z,66.52
2018-06-14T07:36:39.307Z,65.95
2018-06-14T07:37:39.310Z,66.8
2018-06-14T07:38:39.334Z,67.05
2018-06-14T07:39:39.376Z,66.8
2018-06-14T07:40:39.336Z,65.7
2018-06-14T07:41:39.308Z,65.16
2018-06-14T07:42:39.324Z,64.05
2018-06-14T07:43:39.391Z,63.37
2018-06-14T07:44:39.362Z,63.78
2018-06-14T07:45:39.366Z,63.13
2018-06-14T07:46:39.289Z,63.1
2018-06-14T07:47:39.298Z,63.65
2018-06-14T07:48:39.332Z,63.19
2018-06-14T07:49:39.356Z,63.27
2018-06-14T07:50:39.296Z,63.01
2018-06-14T07:51:39.307Z,63.61
2018-06-14T07:52:39.304Z,63.13
2018-06-14T07:53:39.321Z,63.7
2018-06-14T07:54:39.340Z,64.36
2018-06-14T07:55:39.451Z,64.42
2018-06-14T07:56:39.377Z,64.14
2018-06-14T07:57:39.365Z,63.54
2018-06-14T07:58:39.307Z,64.01
2018-06-14T07:59:39.302Z,63.06
2018-06-14T08:00:39.316Z,61.83
2018-06-14T08:01:39.305Z,62.22
2018-06-14T08:02:39.529Z,62.13
2018-06-14T08:03:39.380Z,60.28
2018-06-14T08:04:39.347Z,59.37
2018-06-14T08:05:39.329Z,59.56
2018-06-14T08:06:39.316Z,55.36
2018-06-14T08:07:39.389Z,55.58
2018-06-14T08:08:39.328Z,54.58
2018-06-14T08:09:39.318Z,54.23
2018-06-14T08:10:39.324Z,56.21
2018-06-14T08:11:39.317Z,55.86
2018-06-14T08:12:39.332Z,55.31
2018-06-14T08:13:39.346Z,54.97
2018-06-14T08:14:39.305Z,55.82
2018-06-14T08:15:39.322Z,55.87
2018-06-14T08:16:39.323Z,56.61
2018-06-14T08:17:39.301Z,55.85
2018-06-14T08:18:39.307Z,55.38
2018-06-14T08:19:39.314Z,56.51
2018-06-14T08:20:39.327Z,56.89
2018-06-14T08:21:39.368Z,56.68
2018-06-14T08:22:39.311Z,54.44
2018-06-14T08:23:39.328Z,55
2018-06-14T08:24:39.321Z,51.69
2018-06-14T08:25:39.337Z,50.22
2018-06-14T08:26:39.370Z,47.91
2018-06-14T08:27:39.348Z,49.93
2018-06-14T08:28:39.302Z,49
2018-06-14T08:29:39.359Z,50.96
2018-06-14T08:30:39.324Z,51.89
2018-06-14T08:31:39.299Z,50.3
2018-06-14T08:32:39.385Z,50.43
2018-06-14T08:33:39.313Z,52.15
2018-06-14T08:34:39.394Z,51.32
2018-06-14T08:35:39.422Z,48.81
2018-06-14T08:36:39.357Z,48.4
2018-06-14T08:37:39.364Z,48.25
2018-06-14T08:38:39.450Z,48.06
2018-06-14T08:39:39.485Z,46.09
2018-06-14T08:40:39.414Z,47.66
2018-06-14T08:41:39.535Z,46.66
2018-06-14T08:42:39.493Z,45.18
2018-06-14T08:43:39.785Z,47.57
2018-06-14T08:44:39.478Z,44.7
2018-06-14T08:45:39.393Z,44.43
2018-06-14T08:46:40.263Z,45.73
2018-06-14T08:47:39.547Z,47.04
2018-06-14T08:48:39.692Z,47.32
2018-06-14T08:49:39.521Z,47.5
2018-06-14T08:50:40.058Z,47.07
2018-06-14T08:51:39.341Z,46.27
2018-06-14T08:52:39.393Z,47.18
2018-06-14T08:53:39.377Z,49.26
2018-06-14T08:54:39.460Z,49.96
2018-06-14T08:55:39.471Z,50.25
2018-06-14T08:56:39.542Z,48.97
2018-06-14T08:57:39.360Z,49.37
2018-06-14T08:58:39.354Z,49.75
2018-06-14T08:59:39.364Z,49.26
2018-06-14T09:00:39.501Z,48.38
2018-06-14T09:01:39.363Z,49.55
2018-06-14T09:02:39.697Z,50.36
2018-06-14T09:03:39.348Z,49.36
2018-06-14T09:04:39.361Z,48.93
2018-06-14T09:05:39.501Z,48.51
2018-06-14T09:06:39.403Z,47.66
2018-06-14T09:07:39.346Z,47.11
2018-06-14T09:08:39.367Z,48.37
2018-06-14T09:09:39.409Z,47.25
2018-06-14T09:10:39.444Z,47.5
2018-06-14T09:11:39.741Z,45.64
2018-06-14T09:12:39.561Z,47.84
2018-06-14T09:13:39.436Z,46.86
2018-06-14T09:14:39.463Z,45.78
2018-06-14T09:15:39.576Z,46.94
2018-06-14T09:16:39.702Z,46.3
2018-06-14T09:17:39.377Z,46.58
2018-06-14T09:18:39.485Z,47.3
2018-06-14T09:19:39.370Z,47.05
2018-06-14T09:20:39.610Z,47.1
2018-06-14T09:21:39.386Z,47.62
2018-06-14T09:22:39.521Z,47.24
2018-06-14T09:23:39.369Z,46.91
2018-06-14T09:24:40.454Z,47.61
2018-06-14T09:25:39.429Z,47.39
2018-06-14T09:26:39.544Z,47.42
2018-06-14T09:27:39.924Z,47.05
2018-06-14T09:28:39.522Z,46.97
2018-06-14T09:29:39.457Z,47.49
2018-06-14T09:30:39.466Z,47.23
2018-06-14T09:31:39.472Z,46.89
2018-06-14T09:32:39.590Z,49.19
2018-06-14T09:33:39.420Z,49.92
2018-06-14T09:34:39.502Z,49.59
2018-06-14T09:35:39.395Z,48.95
2018-06-14T09:36:39.504Z,48.27
2018-06-14T09:37:39.368Z,47.71
2018-06-14T09:38:39.367Z,48.69
2018-06-14T09:39:39.370Z,48.85
2018-06-14T09:40:42.811Z,49.27
2018-06-14T09:41:40.072Z,49.28
2018-06-14T09:42:39.384Z,49.37
2018-06-14T09:43:39.400Z,47.04
2018-06-14T09:44:39.377Z,47.17
2018-06-14T09:45:39.433Z,47.28
2018-06-14T09:46:39.581Z,47.58
2018-06-14T09:47:39.409Z,48.19
2018-06-14T09:48:39.477Z,47.44
2018-06-14T09:49:39.411Z,47.33
2018-06-14T09:50:40.428Z,47.44
2018-06-14T09:51:39.366Z,47.41
2018-06-14T09:52:39.392Z,47.99
2018-06-14T09:53:39.372Z,48.58
2018-06-14T09:54:39.381Z,47.17
2018-06-14T09:55:39.538Z,47.14
2018-06-14T09:56:39.443Z,46.17
2018-06-14T09:57:39.412Z,48.31
2018-06-14T09:58:39.412Z,47.71
2018-06-14T09:59:39.378Z,47.09
2018-06-14T10:00:39.576Z,47.59
2018-06-14T10:01:39.403Z,47.49
2018-06-14T10:02:39.404Z,46.83
2018-06-14T10:03:39.411Z,48.16
2018-06-14T10:04:39.386Z,46.98
2018-06-14T10:05:41.553Z,46.78
2018-06-14T10:06:39.392Z,47.28
2018-06-14T10:07:39.451Z,46.73
2018-06-14T10:08:39.380Z,47
2018-06-14T10:09:39.394Z,46.67
2018-06-14T10:10:39.536Z,47.38
2018-06-14T10:11:39.381Z,46.23
2018-06-14T10:12:39.434Z,45.03
2018-06-14T10:13:39.416Z,45.39
2018-06-14T10:14:39.410Z,46.96
2018-06-14T10:15:39.674Z,47.24
2018-06-14T10:16:39.407Z,47.49
2018-06-14T10:17:39.438Z,46.1
2018-06-14T10:18:39.454Z,47.55
2018-06-14T10:19:39.386Z,47.18
2018-06-14T10:20:39.393Z,47.07
2018-06-14T10:21:39.439Z,48.38
2018-06-14T10:22:39.438Z,47.57
2018-06-14T10:23:39.439Z,47.35
2018-06-14T10:24:39.370Z,46.89
2018-06-14T10:25:39.535Z,47.91
2018-06-14T10:26:39.391Z,45.36
2018-06-14T10:27:39.391Z,46.78
2018-06-14T10:28:39.378Z,46.92
2018-06-14T10:29:39.515Z,45.94
2018-06-14T10:30:39.881Z,46.96
2018-06-14T10:31:39.579Z,46.43
2018-06-14T10:32:39.430Z,46.28
2018-06-14T10:33:39.429Z,45.58
2018-06-14T10:34:39.413Z,46.69
2018-06-14T10:35:39.502Z,46.15
2018-06-14T10:36:39.416Z,43.74
2018-06-14T10:37:39.414Z,43.91
2018-06-14T10:38:39.424Z,45.55
2018-06-14T10:39:39.449Z,46.22
2018-06-14T10:40:39.533Z,45.04
2018-06-14T10:41:39.399Z,45.38
2018-06-14T10:42:39.438Z,46.35
2018-06-14T10:43:39.390Z,45.6
2018-06-14T10:44:39.405Z,45.59
2018-06-14T10:45:39.607Z,45.03
2018-06-14T10:46:39.596Z,43.85
2018-06-14T10:47:39.400Z,45.25
2018-06-14T10:48:39.805Z,44.91
2018-06-14T10:49:39.409Z,44.61
2018-06-14T10:50:39.407Z,44.31
2018-06-14T10:51:39.619Z,44.75
2018-06-14T10:52:39.431Z,44.7
2018-06-14T10:53:39.519Z,43.93
2018-06-14T10:54:39.393Z,44.92
2018-06-14T10:55:39.538Z,44.49
2018-06-14T10:56:39.553Z,45.77
2018-06-14T10:57:39.613Z,44.53
2018-06-14T10:58:39.545Z,44.53
2018-06-14T10:59:39.415Z,42.89
2018-06-14T11:00:39.580Z,43.25
2018-06-14T11:01:39.599Z,44.74
2018-06-14T11:02:39.429Z,44.65
2018-06-14T11:03:39.433Z,44.54
2018-06-14T11:04:39.537Z,45.5
2018-06-14T11:05:39.506Z,45.6
2018-06-14T11:06:39.442Z,45.4
2018-06-14T11:07:39.444Z,45.42
2018-06-14T11:08:39.470Z,43.04
2018-06-14T11:09:39.439Z,42.54
2018-06-14T11:10:39.647Z,43.77
2018-06-14T11:11:39.410Z,45.17
2018-06-14T11:12:39.430Z,44.85
2018-06-14T11:13:39.411Z,45.55
2018-06-14T11:14:39.404Z,45.24
2018-06-14T11:15:39.571Z,45.36
2018-06-14T11:16:39.559Z,45.79
2018-06-14T11:17:39.752Z,45.44
2018-06-14T11:18:39.426Z,46.34
2018-06-14T11:19:39.438Z,45.58
2018-06-14T11:20:39.609Z,45.25
2018-06-14T11:21:39.422Z,45.84
2018-06-14T11:22:39.465Z,44.8
2018-06-14T11:23:39.596Z,45.07
2018-06-14T11:24:39.443Z,44.88
2018-06-14T11:25:39.516Z,45.3
2018-06-14T11:26:39.464Z,46.22
2018-06-14T11:27:39.649Z,46.43
2018-06-14T11:28:39.593Z,45.87
2018-06-14T11:29:39.482Z,46.14
2018-06-14T11:30:39.568Z,46.74
2018-06-14T11:31:39.472Z,46.79
2018-06-14T11:32:39.420Z,45.52
2018-06-14T11:33:39.435Z,45.5
2018-06-14T11:34:39.465Z,45.98
2018-06-14T11:35:39.603Z,45.73
2018-06-14T11:36:39.432Z,45.74
2018-06-14T11:37:39.429Z,45.6
2018-06-14T11:38:39.460Z,45.61
2018-06-14T11:39:39.476Z,45.97
2018-06-14T11:40:39.635Z,45.67
2018-06-14T11:41:39.497Z,45.88
2018-06-14T11:42:39.460Z,46.67
2018-06-14T11:43:39.517Z,46.69
2018-06-14T11:44:39.664Z,46.82
2018-06-14T11:45:39.450Z,45
2018-06-14T11:46:39.461Z,45.53
2018-06-14T11:47:39.483Z,45.68
2018-06-14T11:48:39.444Z,44.92
2018-06-14T11:49:39.424Z,44.92
2018-06-14T11:50:39.611Z,45.42
2018-06-14T11:51:39.496Z,46.09
2018-06-14T11:52:39.451Z,46.29
2018-06-14T11:53:39.447Z,45.94
2018-06-14T11:54:39.471Z,46.27
2018-06-14T11:55:39.452Z,46.57
2018-06-14T11:56:39.463Z,46.4
2018-06-14T11:57:39.470Z,46.29
2018-06-14T11:58:39.456Z,45.72
2018-06-14T11:59:39.462Z,45.65
2018-06-14T12:00:39.582Z,45.69
2018-06-14T12:01:39.479Z,44.64
2018-06-14T12:02:39.453Z,43.8
2018-06-14T12:03:39.445Z,44.42
2018-06-14T12:04:39.487Z,45.33
2018-06-14T12:05:39.605Z,46.17
2018-06-14T12:06:39.481Z,46.73
2018-06-14T12:07:39.476Z,47.29
2018-06-14T12:08:39.447Z,44.55
2018-06-14T12:09:39.466Z,44.1
2018-06-14T12:10:39.479Z,43.75
2018-06-14T12:11:39.506Z,45.1
2018-06-14T12:12:39.482Z,45.61
2018-06-14T12:13:39.480Z,45.26
2018-06-14T12:14:39.495Z,45.97
2018-06-14T12:15:39.536Z,44.81
2018-06-14T12:16:39.479Z,45.11
2018-06-14T12:17:39.501Z,45.71
2018-06-14T12:18:39.472Z,45.39
2018-06-14T12:19:39.480Z,45.52
2018-06-14T12:20:39.613Z,46.49
2018-06-14T12:21:39.479Z,46.34
2018-06-14T12:22:39.524Z,45.08
2018-06-14T12:23:39.465Z,46.23
2018-06-14T12:24:39.469Z,47.33
2018-06-14T12:25:39.478Z,46.57
2018-06-14T12:26:39.504Z,46.38
2018-06-14T12:27:39.511Z,46.08
2018-06-14T12:28:39.498Z,46.39
2018-06-14T12:29:39.564Z,46.84
2018-06-14T12:30:39.578Z,45.27
2018-06-14T12:31:39.520Z,46.28
2018-06-14T12:32:39.528Z,45.76
2018-06-14T12:33:39.597Z,44.29
2018-06-14T12:34:39.509Z,44.21
2018-06-14T12:35:39.476Z,44.38
2018-06-14T12:36:39.481Z,44.22
2018-06-14T12:37:39.710Z,44.83
2018-06-14T12:38:39.583Z,43.98
2018-06-14T12:39:39.500Z,44
2018-06-14T12:40:39.649Z,44.45
2018-06-14T12:41:39.663Z,44.35
2018-06-14T12:42:39.483Z,44.33
2018-06-14T12:43:39.514Z,43.97
2018-06-14T12:44:39.617Z,43.67
2018-06-14T12:45:39.687Z,43.41
2018-06-14T12:46:39.556Z,43.64
2018-06-14T12:47:39.508Z,44.75
2018-06-14T12:48:39.633Z,43.23
2018-06-14T12:49:39.763Z,42.61
2018-06-14T12:50:39.822Z,42.74
2018-06-14T12:51:39.566Z,42.56
2018-06-14T12:52:39.491Z,42.79
2018-06-14T12:53:39.496Z,42.67
2018-06-14T12:54:39.570Z,42.42
2018-06-14T12:55:39.575Z,42.46
2018-06-14T12:56:39.479Z,42.52